createdAt,value
2022-10-17T00:00:58.552Z,102319.09
2022-10-17T00:03:28.564Z,102298.50
2022-10-17T00:05:59.503Z,102323.22
2022-10-17T00:08:26.202Z,102305.25
2022-10-17T00:11:01.214Z,102339.75
2022-10-17T00:13:30.155Z,102115.44
2022-10-17T00:15:56.896Z,102315.75
2022-10-17T00:18:23.561Z,102306.00
2022-10-17T00:20:50.982Z,102331.88
2022-10-17T00:23:21.508Z,102337.09
2022-10-17T00:25:48.611Z,102273.06
2022-10-17T00:28:18.078Z,102318.59
2022-10-17T00:30:45.436Z,102344.03
2022-10-17T00:33:12.118Z,102348.03
2022-10-17T00:35:39.009Z,102297.66
2022-10-17T00:38:07.724Z,102340.78
2022-10-17T00:40:34.397Z,102324.81
2022-10-17T00:43:01.157Z,102313.22
2022-10-17T00:45:32.007Z,102358.19
2022-10-17T00:48:08.702Z,102349.41
2022-10-17T00:50:38.921Z,102248.66
2022-10-17T00:53:09.787Z,102316.63
2022-10-17T00:55:53.757Z,102334.00
2022-10-17T00:58:21.236Z,102351.69
2022-10-17T01:00:51.319Z,102356.94
2022-10-17T01:03:20.102Z,102355.50
2022-10-17T01:05:48.459Z,102342.38
2022-10-17T01:08:17.402Z,102342.78
2022-10-17T01:11:13.640Z,102161.81
2022-10-17T01:14:03.360Z,102335.00
2022-10-17T01:16:52.438Z,102348.44
2022-10-17T01:19:54.534Z,102315.47
2022-10-17T01:22:30.891Z,102352.53
2022-10-17T01:25:33.283Z,102352.53
2022-10-17T01:28:21.937Z,102351.69
2022-10-17T01:31:08.381Z,102340.94
2022-10-17T01:33:57.412Z,102349.72
2022-10-17T01:36:58.078Z,102349.41
2022-10-17T01:39:47.928Z,102339.78
2022-10-17T01:42:37.308Z,102340.63
2022-10-17T01:45:14.558Z,102322.13
2022-10-17T01:47:45.501Z,102335.84
2022-10-17T01:50:37.734Z,102342.34
2022-10-17T01:53:14.643Z,102288.75
2022-10-17T01:55:45.497Z,102348.69
2022-10-17T01:58:21.567Z,102330.47
2022-10-17T02:01:03.771Z,102337.50
2022-10-17T02:03:32.487Z,102341.63
2022-10-17T02:06:01.847Z,102332.44
2022-10-17T02:08:41.440Z,102327.06
2022-10-17T02:11:17.880Z,102327.91
2022-10-17T02:14:25.543Z,102347.00
2022-10-17T02:17:19.160Z,102336.13
2022-10-17T02:20:01.013Z,102343.03
2022-10-17T02:22:27.623Z,102342.63
2022-10-17T02:25:14.942Z,102308.78
2022-10-17T02:28:08.078Z,102329.88
2022-10-17T02:30:41.881Z,102339.47
2022-10-17T02:33:14.260Z,102335.53
2022-10-17T02:35:47.071Z,102328.47
2022-10-17T02:38:14.691Z,102275.47
2022-10-17T02:40:48.021Z,102331.56
2022-10-17T02:43:15.363Z,102330.16
2022-10-17T02:45:42.074Z,102325.34
2022-10-17T02:48:14.755Z,102330.72
2022-10-17T02:51:01.362Z,102327.31
2022-10-17T02:53:40.910Z,102324.75
2022-10-17T02:56:18.316Z,102333.63
2022-10-17T02:58:51.185Z,102302.94
2022-10-17T03:01:20.716Z,102339.31
2022-10-17T03:03:51.868Z,102339.03
2022-10-17T03:06:23.137Z,102345.41
2022-10-17T03:08:49.934Z,102338.31
2022-10-17T03:11:16.640Z,102331.25
2022-10-17T03:13:43.428Z,102333.22
2022-10-17T03:16:13.087Z,102330.41
2022-10-17T03:18:39.750Z,102306.50
2022-10-17T03:21:08.475Z,102333.50
2022-10-17T03:23:35.142Z,102316.56
2022-10-17T03:26:08.564Z,102339.28
2022-10-17T03:28:35.642Z,102358.66
2022-10-17T03:31:10.672Z,102319.91
2022-10-17T03:33:38.029Z,102339.66
2022-10-17T03:36:16.644Z,102352.25
2022-10-17T03:38:45.793Z,102288.09
2022-10-17T03:41:15.959Z,102367.66
2022-10-17T03:43:43.016Z,102361.28
2022-10-17T03:46:14.940Z,102376.13
2022-10-17T03:48:41.542Z,102350.25
2022-10-17T03:51:10.223Z,102368.06
2022-10-17T03:53:37.083Z,102370.38
2022-10-17T03:56:21.572Z,102345.88
2022-10-17T03:58:48.538Z,102348.44
2022-10-17T04:01:18.359Z,102376.75
2022-10-17T04:03:52.723Z,102384.34
2022-10-17T04:06:21.360Z,102360.81
2022-10-17T04:08:51.123Z,102363.50
2022-10-17T04:11:20.100Z,102391.94
2022-10-17T04:13:47.115Z,102356.53
2022-10-17T04:16:16.801Z,102369.28
2022-10-17T04:18:44.056Z,102389.09
2022-10-17T04:21:16.178Z,102401.53
2022-10-17T04:23:45.602Z,102408.16
2022-10-17T04:26:12.302Z,102405.88
2022-10-17T04:31:15.487Z,102408.69
2022-10-17T04:33:43.341Z,102406.72
2022-10-17T04:36:17.589Z,102401.47
2022-10-17T04:38:50.107Z,102399.63
2022-10-17T04:41:23.413Z,102404.31
2022-10-17T04:43:51.464Z,102414.72
2022-10-17T04:46:18.563Z,102324.44
2022-10-17T04:48:54.641Z,102375.03
2022-10-17T04:51:24.433Z,102403.53
2022-10-17T04:53:59.496Z,102424.78
2022-10-17T04:56:31.906Z,102397.47
2022-10-17T04:58:59.804Z,102411.47
2022-10-17T05:01:27.320Z,102417.28
2022-10-17T05:03:54.535Z,102425.72
2022-10-17T05:06:26.091Z,102399.34
2022-10-17T05:08:53.640Z,102438.53
2022-10-17T05:11:26.011Z,102439.53
2022-10-17T05:13:55.007Z,102370.53
2022-10-17T05:16:22.614Z,102446.47
2022-10-17T05:18:54.382Z,102446.63
2022-10-17T05:21:27.669Z,102460.19
2022-10-17T05:23:56.373Z,102461.88
2022-10-17T05:26:23.836Z,102441.28
2022-10-17T05:28:58.376Z,102454.38
2022-10-17T05:31:30.858Z,102461.16
2022-10-17T05:34:02.637Z,102443.50
2022-10-17T05:36:29.214Z,102468.16
2022-10-17T05:38:55.975Z,102470.03
2022-10-17T05:41:23.870Z,102407.59
2022-10-17T05:43:51.001Z,102462.97
2022-10-17T05:46:20.454Z,102435.06
2022-10-17T05:48:47.046Z,102485.16
2022-10-17T05:51:13.814Z,102441.22
2022-10-17T05:53:42.416Z,102480.31
2022-10-17T05:56:11.611Z,102474.38
2022-10-17T05:58:53.363Z,102489.38
2022-10-17T06:01:23.660Z,102498.97
2022-10-17T06:03:53.850Z,102498.38
2022-10-17T06:06:30.626Z,102505.47
2022-10-17T06:08:57.271Z,102514.69
2022-10-17T06:11:24.113Z,102520.06
2022-10-17T06:13:50.874Z,102484.84
2022-10-17T06:16:17.532Z,102522.72
2022-10-17T06:18:46.338Z,102522.84
2022-10-17T06:21:17.444Z,102531.47
2022-10-17T06:23:43.991Z,102509.44
2022-10-17T06:26:10.684Z,102544.56
2022-10-17T06:28:37.549Z,102538.66
2022-10-17T06:31:07.644Z,102531.28
2022-10-17T06:33:34.713Z,102536.69
2022-10-17T06:36:02.072Z,102550.75
2022-10-17T06:38:28.858Z,102439.97
2022-10-17T06:41:02.238Z,102557.56
2022-10-17T06:43:32.032Z,102540.72
2022-10-17T06:45:58.840Z,102534.91
2022-10-17T06:48:31.323Z,102513.00
2022-10-17T06:51:09.967Z,102559.47
2022-10-17T06:53:41.719Z,102556.72
2022-10-17T06:56:09.784Z,102569.28
2022-10-17T06:58:41.652Z,102567.66
2022-10-17T07:01:13.410Z,102564.28
2022-10-17T07:03:42.326Z,102571.22
2022-10-17T07:06:11.018Z,102561.47
2022-10-17T07:08:43.249Z,102574.28
2022-10-17T07:11:16.067Z,102551.06
2022-10-17T07:13:43.852Z,102573.19
2022-10-17T07:16:11.322Z,102578.88
2022-10-17T07:18:41.826Z,102583.00
2022-10-17T07:21:12.715Z,102571.25
2022-10-17T07:23:40.005Z,102572.41
2022-10-17T07:26:17.028Z,102551.00
2022-10-17T07:28:46.058Z,102561.06
2022-10-17T07:31:16.403Z,102561.66
2022-10-17T07:33:43.789Z,102566.19
2022-10-17T07:36:11.228Z,102574.38
2022-10-17T07:38:38.214Z,102561.34
2022-10-17T07:41:07.142Z,102514.38
2022-10-17T07:43:34.733Z,102571.28
2022-10-17T07:46:06.779Z,102535.59
2022-10-17T07:48:33.536Z,102577.25
2022-10-17T07:51:05.820Z,102547.50
2022-10-17T07:53:34.753Z,102574.53
2022-10-17T07:56:07.236Z,102563.88
2022-10-17T07:58:34.897Z,102588.25
2022-10-17T08:01:06.646Z,102587.09
2022-10-17T08:03:35.303Z,102570.00
2022-10-17T08:06:07.256Z,102576.94
2022-10-17T08:08:35.006Z,102479.53
2022-10-17T08:11:09.460Z,102573.81
2022-10-17T08:13:36.987Z,102583.97
2022-10-17T08:16:10.380Z,102590.47
2022-10-17T08:18:40.388Z,102595.00
2022-10-17T08:21:17.577Z,102575.31
2022-10-17T08:23:44.619Z,102588.75
2022-10-17T08:26:15.935Z,102591.53
2022-10-17T08:28:43.118Z,102550.50
2022-10-17T08:31:14.816Z,102573.97
2022-10-17T08:33:48.087Z,102585.69
2022-10-17T08:36:18.494Z,102523.97
2022-10-17T08:38:51.670Z,102583.53
2022-10-17T08:41:56.946Z,102582.59
2022-10-17T08:44:50.476Z,102514.69
2022-10-17T08:47:27.447Z,102592.03
2022-10-17T08:49:58.874Z,102591.28
2022-10-17T08:53:04.130Z,102579.00
2022-10-17T08:55:41.364Z,102584.91
2022-10-17T08:58:31.122Z,102583.63
2022-10-17T09:01:19.708Z,102529.97
2022-10-17T09:04:12.539Z,102589.81
2022-10-17T09:07:17.490Z,102592.22
2022-10-17T09:10:18.891Z,102589.44
2022-10-17T09:13:32.447Z,102581.06
2022-10-17T09:16:34.518Z,102585.38
2022-10-17T09:19:12.668Z,102580.66
2022-10-17T09:21:45.465Z,102583.16
2022-10-17T09:24:37.839Z,102583.22
2022-10-17T09:27:05.767Z,102565.63
2022-10-17T09:29:37.946Z,102522.31
2022-10-17T09:32:21.266Z,102565.41
2022-10-17T09:34:52.041Z,102530.28
2022-10-17T09:37:29.352Z,102518.97
2022-10-17T09:39:56.370Z,102586.81
2022-10-17T09:42:28.365Z,102412.53
2022-10-17T09:45:01.525Z,102555.41
2022-10-17T09:48:10.381Z,102586.59
2022-10-17T09:50:43.574Z,102570.03
2022-10-17T09:53:49.937Z,102582.84
2022-10-17T09:56:19.116Z,102501.03
2022-10-17T09:58:53.669Z,102583.38
2022-10-17T10:01:28.370Z,102481.31
2022-10-17T10:04:13.412Z,102572.53
2022-10-17T10:07:04.782Z,102540.16
2022-10-17T10:09:34.861Z,102513.59
2022-10-17T10:12:22.538Z,102568.84
2022-10-17T10:14:54.756Z,102544.13
2022-10-17T10:17:44.220Z,102587.81
2022-10-17T10:20:31.376Z,102590.50
2022-10-17T10:23:24.509Z,102510.97
2022-10-17T10:25:58.275Z,102575.63
2022-10-17T10:28:36.491Z,102584.94
2022-10-17T10:31:08.285Z,102585.94
2022-10-17T10:33:41.761Z,102574.59
2022-10-17T10:36:10.151Z,102570.22
2022-10-17T10:38:44.933Z,102582.72
2022-10-17T10:41:12.090Z,102518.06
2022-10-17T10:43:43.566Z,102548.56
2022-10-17T10:46:21.143Z,102583.19
2022-10-17T10:48:59.744Z,102584.38
2022-10-17T10:51:43.288Z,102584.00
2022-10-17T10:54:22.533Z,102566.94
2022-10-17T10:56:59.256Z,102548.50
2022-10-17T11:00:12.589Z,102574.56
2022-10-17T11:03:11.734Z,102541.59
2022-10-17T11:05:49.805Z,102510.16
2022-10-17T11:09:04.712Z,102501.19
2022-10-17T11:11:46.112Z,102570.88
2022-10-17T11:14:46.450Z,102554.78
2022-10-17T11:17:22.115Z,102501.50
2022-10-17T11:20:32.623Z,102489.81
2022-10-17T11:23:14.618Z,102529.06
2022-10-17T11:25:42.456Z,102470.00
2022-10-17T11:28:25.155Z,102550.06
2022-10-17T11:30:55.689Z,102559.69
2022-10-17T11:34:09.035Z,102536.53
2022-10-17T11:36:43.380Z,102554.97
2022-10-17T11:39:26.972Z,102455.44
2022-10-17T11:42:11.016Z,102509.56
2022-10-17T11:44:40.836Z,102448.53
2022-10-17T11:47:45.901Z,102531.97
2022-10-17T11:53:34.807Z,102532.63
2022-10-17T11:56:05.073Z,102514.19
2022-10-17T11:58:42.182Z,102467.69
2022-10-17T12:01:24.640Z,102534.31
2022-10-17T12:04:17.144Z,102530.28
2022-10-17T12:07:17.735Z,102514.88
2022-10-17T12:10:07.508Z,102522.50
2022-10-17T12:12:42.210Z,102516.41
2022-10-17T12:15:12.009Z,102519.28
2022-10-17T12:17:47.360Z,102516.38
2022-10-17T12:20:26.661Z,102502.13
2022-10-17T12:22:58.030Z,102488.31
2022-10-17T12:25:30.325Z,102502.69
2022-10-17T12:28:13.296Z,102442.09
2022-10-17T12:31:02.449Z,102500.84
2022-10-17T12:33:40.751Z,102455.69
2022-10-17T12:36:39.638Z,102434.16
2022-10-17T12:39:16.024Z,102502.69
2022-10-17T12:41:49.232Z,102475.78
2022-10-17T12:44:24.838Z,102446.00
2022-10-17T12:47:10.780Z,102505.03
2022-10-17T12:49:46.092Z,102471.41
2022-10-17T12:52:22.006Z,102485.78
2022-10-17T12:55:13.227Z,102505.25
2022-10-17T12:58:01.789Z,102497.44
2022-10-17T13:01:11.777Z,102491.88
2022-10-17T13:03:49.419Z,102499.31
2022-10-17T13:06:28.812Z,102481.22
2022-10-17T13:09:04.037Z,102497.13
2022-10-17T13:11:35.206Z,102492.38
2022-10-17T13:14:12.732Z,102417.25
2022-10-17T13:16:53.876Z,102400.84
2022-10-17T13:19:23.807Z,102459.41
2022-10-17T13:22:05.323Z,102476.16
2022-10-17T13:24:36.654Z,102487.59
2022-10-17T13:27:05.462Z,102455.75
2022-10-17T13:29:33.024Z,102445.94
2022-10-17T13:32:01.594Z,102471.81
2022-10-17T13:34:31.877Z,102431.72
2022-10-17T13:37:01.636Z,102486.38
2022-10-17T13:39:54.377Z,102492.50
2022-10-17T13:42:28.896Z,102481.56
2022-10-17T13:44:58.067Z,102484.88
2022-10-17T13:47:28.849Z,102407.94
2022-10-17T13:49:59.414Z,102484.19
2022-10-17T13:52:29.757Z,102462.91
2022-10-17T13:55:09.238Z,102471.56
2022-10-17T13:57:35.919Z,102473.09
2022-10-17T14:00:10.116Z,102478.50
2022-10-17T14:02:45.650Z,102431.44
2022-10-17T14:05:22.302Z,102474.47
2022-10-17T14:08:22.058Z,102480.69
2022-10-17T14:10:49.239Z,102463.63
2022-10-17T14:13:37.388Z,102472.75
2022-10-17T14:16:07.556Z,102470.38
2022-10-17T14:18:38.256Z,102477.66
2022-10-17T14:24:13.313Z,102474.94
2022-10-17T14:26:52.158Z,102462.78
2022-10-17T14:29:30.938Z,102471.75
2022-10-17T14:32:10.897Z,102463.44
2022-10-17T14:34:42.031Z,102472.09
2022-10-17T14:37:31.220Z,102464.28
2022-10-17T14:40:06.115Z,102421.00
2022-10-17T14:42:45.577Z,102462.63
2022-10-17T14:45:33.160Z,102461.28
2022-10-17T14:48:24.266Z,102466.28
2022-10-17T14:51:17.440Z,102459.88
2022-10-17T14:54:22.223Z,102439.38
2022-10-17T14:56:54.067Z,102423.81
2022-10-17T14:59:53.384Z,102456.97
2022-10-17T15:02:19.835Z,102436.88
2022-10-17T15:04:46.979Z,102453.63
2022-10-17T15:07:24.329Z,102449.38
2022-10-17T15:09:53.368Z,102432.47
2022-10-17T15:12:22.765Z,102430.59
2022-10-17T15:14:51.084Z,102438.53
2022-10-17T15:17:27.640Z,102401.53
2022-10-17T15:19:54.843Z,102417.56
2022-10-17T15:22:27.601Z,102433.13
2022-10-17T15:24:54.864Z,102430.09
2022-10-17T15:27:26.788Z,102436.34
2022-10-17T15:29:53.568Z,102463.91
2022-10-17T15:32:27.259Z,102425.34
2022-10-17T15:34:57.552Z,102459.19
2022-10-17T15:37:28.152Z,102439.53
2022-10-17T15:39:55.914Z,102325.16
2022-10-17T15:42:29.863Z,102450.34
2022-10-17T15:45:02.049Z,102458.50
2022-10-17T15:47:34.001Z,102455.94
2022-10-17T15:50:01.981Z,102450.88
2022-10-17T15:52:31.968Z,102459.84
2022-10-17T15:55:04.385Z,102466.41
2022-10-17T15:57:37.985Z,102461.50
2022-10-17T16:00:17.730Z,102428.03
2022-10-17T16:02:44.823Z,102432.25
2022-10-17T16:05:23.121Z,102441.41
2022-10-17T16:07:50.254Z,102450.69
2022-10-17T16:10:20.357Z,102427.16
2022-10-17T16:12:51.723Z,102460.47
2022-10-17T16:15:23.834Z,102457.28
2022-10-17T16:18:01.644Z,102419.88
2022-10-17T16:20:31.824Z,102454.56
2022-10-17T16:23:02.560Z,102449.78
2022-10-17T16:25:30.959Z,102432.03
2022-10-17T16:28:00.222Z,102393.44
2022-10-17T16:30:55.003Z,102408.47
2022-10-17T16:33:31.576Z,102379.53
2022-10-17T16:36:07.365Z,102353.47
2022-10-17T16:38:34.331Z,102447.91
2022-10-17T16:41:02.158Z,102472.25
2022-10-17T16:43:37.117Z,102468.88
2022-10-17T16:46:04.475Z,102475.16
2022-10-17T16:48:31.097Z,102446.53
2022-10-17T16:51:04.676Z,102470.72
2022-10-17T16:53:34.409Z,102479.03
2022-10-17T16:56:04.156Z,102456.88
2022-10-17T16:58:32.496Z,102475.66
2022-10-17T17:03:45.575Z,102451.94
2022-10-17T17:06:19.109Z,102451.94
2022-10-17T17:08:46.344Z,102477.66
2022-10-17T17:11:23.885Z,102469.75
2022-10-17T17:13:51.077Z,102472.56
2022-10-17T17:16:29.628Z,102480.16
2022-10-17T17:19:01.759Z,102473.22
2022-10-17T17:21:29.266Z,102489.63
2022-10-17T17:24:01.263Z,102488.09
2022-10-17T17:26:31.562Z,102488.59
2022-10-17T17:29:01.014Z,102458.97
2022-10-17T17:31:31.504Z,102485.22
2022-10-17T17:33:59.492Z,102439.63
2022-10-17T17:36:30.285Z,102470.25
2022-10-17T17:38:59.282Z,102466.50
2022-10-17T17:41:29.573Z,102446.34
2022-10-17T17:44:00.484Z,102490.34
2022-10-17T17:46:27.967Z,102477.31
2022-10-17T17:48:58.212Z,102496.41
2022-10-17T17:51:33.356Z,102480.63
2022-10-17T17:54:00.105Z,102503.28
2022-10-17T17:56:29.272Z,102502.31
2022-10-17T17:58:58.523Z,102480.63
2022-10-17T18:01:28.357Z,102504.31
2022-10-17T18:03:56.710Z,102458.75
2022-10-17T18:06:34.683Z,102482.25
2022-10-17T18:09:03.377Z,102383.69
2022-10-17T18:11:30.467Z,102487.84
2022-10-17T18:13:59.487Z,102465.19
2022-10-17T18:16:28.599Z,102464.66
2022-10-17T18:18:56.340Z,102497.00
2022-10-17T18:21:23.324Z,102487.31
2022-10-17T18:23:53.305Z,102501.34
2022-10-17T18:26:20.185Z,102504.53
2022-10-17T18:28:46.875Z,102493.84
2022-10-17T18:31:24.436Z,102504.97
2022-10-17T18:33:53.172Z,102493.41
2022-10-17T18:36:22.444Z,102504.06
2022-10-17T18:38:53.515Z,102502.50
2022-10-17T18:41:22.946Z,102502.13
2022-10-17T18:43:55.958Z,102485.81
2022-10-17T18:46:25.238Z,102495.22
2022-10-17T18:49:01.329Z,102485.88
2022-10-17T18:51:28.538Z,102452.28
2022-10-17T18:53:58.655Z,102463.47
2022-10-17T18:56:25.889Z,102493.44
2022-10-17T18:58:56.242Z,102479.59
2022-10-17T19:01:28.063Z,102475.44
2022-10-17T19:04:01.286Z,102494.06
2022-10-17T19:06:35.151Z,102432.81
2022-10-17T19:09:05.731Z,102499.06
2022-10-17T19:11:35.625Z,102478.22
2022-10-17T19:14:14.095Z,102491.06
2022-10-17T19:16:48.506Z,102482.34
2022-10-17T19:19:22.664Z,102495.94
2022-10-17T19:21:57.357Z,102506.06
2022-10-17T19:24:27.526Z,102385.63
2022-10-17T19:26:59.582Z,102423.34
2022-10-17T19:29:29.799Z,102466.63
2022-10-17T19:31:59.298Z,102497.75
2022-10-17T19:34:29.461Z,102442.66
2022-10-17T19:36:57.908Z,102504.44
2022-10-17T19:39:27.702Z,102469.41
2022-10-17T19:41:57.663Z,102502.69
2022-10-17T19:44:25.550Z,102400.88
2022-10-17T19:46:56.123Z,102495.56
2022-10-17T19:49:30.167Z,102517.38
2022-10-17T19:51:59.805Z,102474.94
2022-10-17T19:54:29.966Z,102522.38
2022-10-17T19:56:57.478Z,102521.81
2022-10-17T19:59:27.140Z,102528.22
2022-10-17T20:01:54.569Z,102523.81
2022-10-17T20:04:27.635Z,102517.19
2022-10-17T20:07:00.115Z,102495.16
2022-10-17T20:09:27.519Z,102495.44
2022-10-17T20:11:56.049Z,102541.88
2022-10-17T20:14:23.415Z,102518.66
2022-10-17T20:16:53.096Z,102453.63
2022-10-17T20:19:30.756Z,102498.13
2022-10-17T20:21:57.989Z,102542.28
2022-10-17T20:24:29.711Z,102527.72
2022-10-17T20:26:57.183Z,102298.03
2022-10-17T20:29:24.583Z,102504.09
2022-10-17T20:31:51.720Z,102411.53
2022-10-17T20:34:19.658Z,102545.28
2022-10-17T20:36:47.339Z,102466.00
2022-10-17T20:39:16.561Z,102443.25
2022-10-17T20:41:49.874Z,102545.75
2022-10-17T20:44:17.018Z,102539.56
2022-10-17T20:47:00.335Z,102470.97
2022-10-17T20:49:28.482Z,102498.44
2022-10-17T20:51:59.466Z,102519.34
2022-10-17T20:54:31.468Z,102545.94
2022-10-17T20:57:05.149Z,102544.84
2022-10-17T20:59:39.784Z,102518.94
2022-10-17T21:02:19.867Z,102531.44
2022-10-17T21:04:48.414Z,102517.13
2022-10-17T21:07:17.932Z,102524.63
2022-10-17T21:09:47.906Z,102495.94
2022-10-17T21:12:26.031Z,102491.97
2022-10-17T21:14:59.866Z,102530.72
2022-10-17T21:17:27.197Z,102551.09
2022-10-17T21:19:54.137Z,102540.59
2022-10-17T21:22:20.953Z,102552.06
2022-10-17T21:24:50.133Z,102550.38
2022-10-17T21:27:23.599Z,102551.38
2022-10-17T21:29:51.334Z,102523.94
2022-10-17T21:32:40.308Z,102531.16
2022-10-17T21:35:12.662Z,102534.13
2022-10-17T21:37:42.559Z,102544.91
2022-10-17T21:40:16.432Z,102537.25
2022-10-17T21:42:44.170Z,102512.66
2022-10-17T21:45:15.621Z,102526.50
2022-10-17T21:48:11.687Z,102542.06
2022-10-17T21:50:35.181Z,102551.25
2022-10-17T21:53:07.376Z,102549.28
2022-10-17T21:55:37.268Z,102510.09
2022-10-17T21:58:07.903Z,102528.78
2022-10-17T22:00:34.570Z,102479.25
2022-10-17T22:03:01.357Z,102546.88
2022-10-17T22:05:28.052Z,102542.38
2022-10-17T22:07:55.185Z,102544.06
2022-10-17T22:10:23.028Z,102544.06
2022-10-17T22:12:58.863Z,102538.25
2022-10-17T22:15:29.710Z,102548.31
2022-10-17T22:17:59.020Z,102514.91
2022-10-17T22:20:28.958Z,102546.34
2022-10-17T22:23:02.623Z,102546.63
2022-10-17T22:25:30.440Z,102534.75
2022-10-17T22:27:59.802Z,102490.28
2022-10-17T22:30:26.746Z,102525.25
2022-10-17T22:32:56.446Z,102529.66
2022-10-17T22:35:23.247Z,102510.13
2022-10-17T22:37:51.099Z,102540.97
2022-10-17T22:40:18.063Z,102538.88
2022-10-17T22:42:45.112Z,102547.06
2022-10-17T22:45:11.807Z,102521.31
2022-10-17T22:47:38.648Z,102546.22
2022-10-17T22:50:05.815Z,102546.94
2022-10-17T22:52:35.557Z,102482.38
2022-10-17T22:55:02.887Z,102539.84
2022-10-17T22:57:31.810Z,102536.16
2022-10-17T22:59:59.958Z,102535.88
2022-10-17T23:02:28.408Z,102477.13
2022-10-17T23:04:55.617Z,102510.13
2022-10-17T23:07:22.362Z,102539.56
2022-10-17T23:09:52.220Z,102494.94
2022-10-17T23:12:24.220Z,102531.94
2022-10-17T23:14:55.692Z,102515.50
2022-10-17T23:17:22.770Z,102471.34
2022-10-17T23:19:51.846Z,102531.06
2022-10-17T23:22:20.933Z,102516.94
2022-10-17T23:24:47.605Z,102488.19
2022-10-17T23:27:14.430Z,102517.78
2022-10-17T23:29:41.181Z,102499.94
2022-10-17T23:32:12.136Z,102521.72
2022-10-17T23:34:38.908Z,102520.03
2022-10-17T23:37:14.525Z,102509.13
2022-10-17T23:39:44.222Z,102516.94
2022-10-17T23:42:10.869Z,102525.56
2022-10-17T23:44:37.536Z,102524.41
2022-10-17T23:47:07.289Z,102497.81
2022-10-17T23:49:35.646Z,102507.00
2022-10-17T23:52:05.529Z,102527.81
2022-10-17T23:54:32.501Z,102519.44
2022-10-17T23:57:02.134Z,102502.47
2022-10-17T23:59:31.476Z,102505.88
